New Bedford, Massachusetts
Current Conditions -  °F | °C
As of 1:53 PM on Friday 21 Nov 2014 (Local Time) from KEWB Reporting Station
Few Clouds Few Clouds  
Wind Chill: 25°   Ceiling: Unl
Heat Index: 36°   Visibility: 10mi
Dew Point: 10°   Wind: 20mph
Humidity: 34%   Direction: 290°WNW
Pressure: 30.15"   Gusts: 26mph
Location:  41.64°N, 70.93°W
Report Text: KEWB 211853Z 29017G23KT 10SM FEW060 02/M12 A3015 RMK AO2 SLP211 T00221122
Loading
Personal Weather Stations






























Interactive Weather Map New forecast layout! Learn more

10-Day Weather Forecast

Advertisements
Track Severe Weather on mobile